Wetterdaten: Woche 23.07.18 - 29.07.18 (KW30)
Datum Zeit Temp. A. Feuchte A. Luftdruck Regen Wind Richtung Taupunkt Windchill Windben
23.07.2018 00:00 18,6 C 81 % 1011,0 hPa 0,5 l/m 4,7 km/h N 15,3 C 18,4 C 17,7 km/h
23.07.2018 01:00 18,4 C 81 % 1010,6 hPa 0,5 l/m 8,2 km/h N 15,1 C 17,6 C 23,7 km/h
23.07.2018 02:00 18,3 C 81 % 1010,7 hPa 0,5 l/m 7,6 km/h N 15,0 C 17,8 C 20,1 km/h
23.07.2018 03:00 18,3 C 81 % 1010,8 hPa 0,0 l/m 6,8 km/h N 15,0 C 18,0 C 20,5 km/h
23.07.2018 04:00 18,0 C 81 % 1011,0 hPa 0,3 l/m 4,4 km/h N 14,8 C 18,0 C 16,9 km/h
23.07.2018 05:00 17,6 C 82 % 1011,2 hPa 3,1 l/m 5,0 km/h N 14,5 C 17,6 C 17,3 km/h
23.07.2018 06:00 17,3 C 82 % 1011,5 hPa 3,1 l/m 9,7 km/h N 14,2 C 15,8 C 23,7 km/h
23.07.2018 07:00 17,1 C 82 % 1011,6 hPa 4,2 l/m 7,0 km/h N 14,0 C 16,5 C 21,7 km/h
23.07.2018 08:00 17,3 C 82 % 1011,8 hPa 0,5 l/m 9,0 km/h N 14,2 C 16,1 C 26,5 km/h
23.07.2018 09:00 17,7 C 82 % 1012,3 hPa 0,3 l/m 7,6 km/h N 14,6 C 17,1 C 20,9 km/h
23.07.2018 10:00 18,2 C 82 % 1012,6 hPa 0,3 l/m 7,3 km/h N 15,0 C 17,7 C 21,3 km/h
23.07.2018 11:00 18,5 C 81 % 1012,6 hPa 0,3 l/m 9,4 km/h N 15,3 C 17,3 C 24,5 km/h
23.07.2018 12:00 19,4 C 80 % 1012,5 hPa 0,3 l/m 7,5 km/h N 15,9 C 18,9 C 22,1 km/h
23.07.2018 13:00 21,8 C 76 % 1012,1 hPa 0,0 l/m 7,8 km/h N 17,3 C 21,2 C 24,1 km/h
23.07.2018 14:00 24,4 C 70 % 1011,5 hPa 0,0 l/m 6,9 km/h N 18,5 C 24,1 C 23,3 km/h
23.07.2018 15:00 25,8 C 64 % 1011,0 hPa 0,0 l/m 7,0 km/h N 18,3 C 25,6 C 23,7 km/h
23.07.2018 16:00 26,1 C 62 % 1010,5 hPa 0,0 l/m 7,7 km/h N 18,2 C 25,8 C 22,9 km/h
23.07.2018 17:00 26,7 C 58 % 1010,1 hPa 0,0 l/m 6,6 km/h N 17,8 C 26,6 C 20,9 km/h
23.07.2018 18:00 27,6 C 50 % 1010,4 hPa 0,0 l/m 3,5 km/h N 16,2 C 27,6 C 13,7 km/h
23.07.2018 19:00 26,9 C 50 % 1010,6 hPa 0,0 l/m 2,3 km/h N 15,6 C 26,9 C 10,0 km/h
23.07.2018 20:00 25,4 C 54 % 1011,0 hPa 0,0 l/m 4,3 km/h N 15,4 C 25,3 C 13,7 km/h
23.07.2018 21:00 24,0 C 63 % 1012,0 hPa 0,0 l/m 6,7 km/h N 16,4 C 23,8 C 19,7 km/h
23.07.2018 22:00 23,3 C 65 % 1012,8 hPa 0,0 l/m 7,4 km/h N 16,4 C 22,9 C 18,5 km/h
23.07.2018 23:00 22,8 C 66 % 1013,1 hPa 0,0 l/m 4,8 km/h N 16,1 C 22,8 C 16,1 km/h
24.07.2018 00:00 22,7 C 65 % 1013,3 hPa 0,0 l/m 5,0 km/h N 15,7 C 22,7 C 15,7 km/h
24.07.2018 01:00 22,2 C 67 % 1013,1 hPa 0,0 l/m 6,9 km/h N 15,8 C 22,0 C 18,1 km/h
24.07.2018 02:00 21,6 C 70 % 1012,8 hPa 0,0 l/m 4,1 km/h N 15,8 C 21,6 C 16,5 km/h
24.07.2018 03:00 21,3 C 70 % 1012,5 hPa 0,0 l/m 6,6 km/h N 15,6 C 21,2 C 19,7 km/h
24.07.2018 04:00 21,0 C 70 % 1012,4 hPa 0,0 l/m 6,9 km/h N 15,3 C 20,7 C 20,5 km/h
24.07.2018 05:00 20,6 C 71 % 1012,7 hPa 0,0 l/m 5,6 km/h N 15,1 C 20,5 C 18,9 km/h
24.07.2018 06:00 20,9 C 70 % 1013,0 hPa 0,0 l/m 5,1 km/h N 15,2 C 20,8 C 17,3 km/h
24.07.2018 07:00 21,8 C 68 % 1013,0 hPa 0,0 l/m 6,6 km/h N 15,6 C 21,5 C 18,9 km/h
24.07.2018 08:00 22,5 C 68 % 1013,2 hPa 0,0 l/m 4,3 km/h N 16,2 C 22,5 C 18,1 km/h
24.07.2018 09:00 23,7 C 64 % 1013,0 hPa 0,0 l/m 6,9 km/h N 16,5 C 23,4 C 23,3 km/h
24.07.2018 10:00 25,1 C 62 % 1012,9 hPa 0,0 l/m 5,7 km/h N 17,3 C 25,0 C 19,7 km/h
24.07.2018 11:00 25,9 C 60 % 1012,6 hPa 0,0 l/m 6,6 km/h N 17,5 C 25,8 C 18,5 km/h
24.07.2018 12:00 26,8 C 56 % 1012,5 hPa 0,0 l/m 6,2 km/h N 17,1 C 26,7 C 19,3 km/h
24.07.2018 13:00 27,2 C 55 % 1012,0 hPa 0,0 l/m 5,1 km/h N 17,4 C 27,2 C 18,5 km/h
24.07.2018 14:00 28,0 C 51 % 1011,3 hPa 0,0 l/m 5,5 km/h N 17,0 C 28,0 C 19,7 km/h
24.07.2018 15:00 28,4 C 47 % 1010,9 hPa 0,0 l/m 7,1 km/h N 15,8 C 28,2 C 20,9 km/h
24.07.2018 16:00 28,7 C 45 % 1010,4 hPa 0,0 l/m 5,8 km/h N 15,6 C 28,6 C 20,9 km/h
24.07.2018 17:00 28,8 C 43 % 1010,1 hPa 0,0 l/m 7,2 km/h N 15,0 C 28,7 C 20,9 km/h
24.07.2018 18:00 29,1 C 44 % 1009,8 hPa 0,0 l/m 4,3 km/h N 15,6 C 29,1 C 14,9 km/h
24.07.2018 19:00 28,5 C 49 % 1009,8 hPa 0,0 l/m 3,4 km/h N 16,7 C 28,5 C 15,3 km/h
24.07.2018 20:00 26,9 C 54 % 1010,1 hPa 0,0 l/m 0,4 km/h N 16,7 C 26,9 C 4,8 km/h
24.07.2018 21:00 24,9 C 59 % 1010,3 hPa 0,0 l/m 0,3 km/h N 16,3 C 24,9 C 4,0 km/h
24.07.2018 22:00 24,7 C 60 % 1010,6 hPa 0,0 l/m 0,7 km/h N 16,3 C 24,7 C 3,2 km/h
24.07.2018 23:00 23,9 C 63 % 1010,9 hPa 0,0 l/m 0,1 km/h N 16,4 C 23,9 C 2,4 km/h
25.07.2018 00:00 23,3 C 64 % 1011,1 hPa 0,0 l/m 0,1 km/h N 16,2 C 23,3 C 2,8 km/h
25.07.2018 01:00 21,5 C 70 % 1011,1 hPa 0,0 l/m 0,1 km/h N 15,9 C 21,5 C 1,2 km/h
25.07.2018 02:00 19,9 C 74 % 1011,1 hPa 0,0 l/m 0,0 km/h N 15,2 C 19,9 C 0,4 km/h
25.07.2018 03:00 18,9 C 76 % 1011,2 hPa 0,0 l/m 0,0 km/h N 14,6 C 18,9 C 0,0 km/h
25.07.2018 04:00 18,0 C 79 % 1011,2 hPa 0,0 l/m 0,0 km/h N 14,2 C 18,0 C 0,0 km/h
25.07.2018 05:00 17,5 C 79 % 1011,4 hPa 0,0 l/m 0,0 km/h N 13,9 C 17,5 C 0,0 km/h
25.07.2018 06:00 17,9 C 80 % 1011,8 hPa 0,0 l/m 0,8 km/h N 14,3 C 17,9 C 4,4 km/h
25.07.2018 07:00 21,0 C 70 % 1011,9 hPa 0,0 l/m 4,6 km/h N 15,4 C 21,0 C 15,3 km/h
25.07.2018 08:00 22,4 C 67 % 1012,3 hPa 0,0 l/m 5,5 km/h N 15,9 C 22,4 C 16,1 km/h
25.07.2018 09:00 24,1 C 64 % 1012,5 hPa 0,0 l/m 5,6 km/h N 16,7 C 24,1 C 16,1 km/h
25.07.2018 10:00 25,6 C 59 % 1012,4 hPa 0,0 l/m 6,0 km/h N 17,0 C 25,6 C 16,5 km/h
25.07.2018 11:00 26,6 C 56 % 1012,2 hPa 0,0 l/m 6,0 km/h N 17,0 C 26,5 C 18,5 km/h
25.07.2018 12:00 27,3 C 56 % 1011,9 hPa 0,0 l/m 5,4 km/h N 17,6 C 27,3 C 17,3 km/h
25.07.2018 13:00 27,9 C 56 % 1011,4 hPa 0,0 l/m 6,3 km/h N 18,1 C 27,8 C 19,7 km/h
25.07.2018 14:00 28,5 C 53 % 1011,0 hPa 0,0 l/m 4,9 km/h N 17,9 C 28,5 C 18,9 km/h
25.07.2018 15:00 28,3 C 52 % 1010,6 hPa 0,0 l/m 6,6 km/h N 17,3 C 28,3 C 20,9 km/h
25.07.2018 16:00 28,4 C 51 % 1010,3 hPa 0,0 l/m 7,1 km/h N 17,3 C 28,3 C 22,1 km/h
25.07.2018 17:00 28,3 C 51 % 1010,2 hPa 0,0 l/m 5,1 km/h N 17,0 C 28,3 C 18,9 km/h
25.07.2018 18:00 27,4 C 55 % 1010,0 hPa 0,0 l/m 3,8 km/h N 17,6 C 27,4 C 12,9 km/h
25.07.2018 19:00 26,3 C 57 % 1010,5 hPa 0,0 l/m 3,4 km/h N 17,1 C 26,1 C 13,3 km/h
25.07.2018 20:00 22,3 C 68 % 1011,3 hPa 0,5 l/m 4,0 km/h N 15,9 C 22,0 C 14,9 km/h
25.07.2018 21:00 19,3 C 77 % 1011,6 hPa 0,0 l/m 0,4 km/h N 15,1 C 19,3 C 5,2 km/h
25.07.2018 22:00 18,4 C 79 % 1012,0 hPa 0,0 l/m 1,1 km/h N 14,7 C 18,4 C 5,6 km/h
25.07.2018 23:00 18,3 C 79 % 1012,3 hPa 0,0 l/m 0,4 km/h N 14,5 C 18,3 C 4,4 km/h
26.07.2018 00:00 18,4 C 78 % 1012,3 hPa 0,0 l/m 0,1 km/h N 14,4 C 18,4 C 3,2 km/h
26.07.2018 01:00 18,3 C 78 % 1012,2 hPa 0,0 l/m 0,0 km/h N 14,3 C 18,3 C 1,2 km/h
26.07.2018 02:00 18,3 C 79 % 1011,8 hPa 0,0 l/m 0,0 km/h N 14,5 C 18,3 C 1,6 km/h
26.07.2018 03:00 19,0 C 77 % 1011,9 hPa 0,0 l/m 0,7 km/h N 14,9 C 19,0 C 6,8 km/h
26.07.2018 04:00 19,8 C 73 % 1011,8 hPa 0,0 l/m 2,4 km/h N 14,9 C 19,8 C 9,7 km/h
26.07.2018 05:00 20,2 C 71 % 1012,1 hPa 0,0 l/m 3,3 km/h N 14,8 C 20,2 C 9,7 km/h
26.07.2018 06:00 20,0 C 73 % 1012,5 hPa 0,0 l/m 4,5 km/h N 15,0 C 20,0 C 12,5 km/h
26.07.2018 07:00 21,1 C 71 % 1012,8 hPa 0,0 l/m 6,0 km/h N 15,6 C 21,0 C 16,1 km/h
26.07.2018 08:00 21,7 C 71 % 1013,4 hPa 0,0 l/m 6,7 km/h N 16,1 C 21,6 C 19,3 km/h
26.07.2018 09:00 22,3 C 71 % 1013,6 hPa 0,0 l/m 6,8 km/h N 16,7 C 22,1 C 18,5 km/h
26.07.2018 10:00 23,5 C 71 % 1013,5 hPa 0,0 l/m 6,6 km/h N 18,0 C 23,4 C 19,7 km/h
26.07.2018 11:00 24,9 C 68 % 1013,3 hPa 0,0 l/m 7,1 km/h N 18,6 C 24,8 C 20,5 km/h
26.07.2018 12:00 25,5 C 66 % 1012,9 hPa 0,0 l/m 6,8 km/h N 18,8 C 25,3 C 18,9 km/h
26.07.2018 13:00 26,8 C 64 % 1012,5 hPa 0,0 l/m 6,1 km/h N 19,4 C 26,7 C 19,7 km/h
26.07.2018 14:00 27,5 C 60 % 1011,8 hPa 0,0 l/m 7,0 km/h N 19,1 C 27,4 C 19,3 km/h
26.07.2018 15:00 27,8 C 58 % 1011,0 hPa 0,0 l/m 6,1 km/h N 18,6 C 27,7 C 21,3 km/h
26.07.2018 16:00 26,2 C 67 % 1010,9 hPa 4,4 l/m 7,6 km/h N 19,5 C 26,0 C 21,7 km/h
26.07.2018 17:00 23,1 C 78 % 1011,6 hPa 1,8 l/m 1,4 km/h N 19,0 C 23,1 C 6,8 km/h
26.07.2018 18:00 22,4 C 80 % 1011,9 hPa 0,3 l/m 0,8 km/h N 18,8 C 22,4 C 5,6 km/h
26.07.2018 19:00 19,7 C 81 % 1012,8 hPa 17,7 l/m 4,8 km/h N 16,3 C 19,6 C 16,5 km/h
26.07.2018 20:00 19,0 C 81 % 1012,7 hPa 0,0 l/m 2,1 km/h N 15,6 C 19,0 C 10,1 km/h
26.07.2018 21:00 18,7 C 82 % 1012,9 hPa 0,0 l/m 0,5 km/h N 15,5 C 18,7 C 5,2 km/h
26.07.2018 22:00 18,5 C 82 % 1013,1 hPa 0,0 l/m 0,1 km/h N 15,3 C 18,5 C 1,2 km/h
26.07.2018 23:00 18,3 C 82 % 1013,0 hPa 0,0 l/m 0,0 km/h N 15,1 C 18,3 C 0,0 km/h
27.07.2018 00:00 18,1 C 82 % 1012,9 hPa 0,0 l/m 0,1 km/h N 15,0 C 18,1 C 0,8 km/h
27.07.2018 01:00 18,2 C 82 % 1012,6 hPa 0,0 l/m 0,4 km/h N 15,1 C 18,2 C 4,4 km/h
27.07.2018 02:00 19,2 C 82 % 1012,3 hPa 0,0 l/m 1,2 km/h N 16,1 C 19,2 C 7,6 km/h
27.07.2018 03:00 20,5 C 79 % 1012,0 hPa 0,0 l/m 2,2 km/h N 16,7 C 20,5 C 8,4 km/h
27.07.2018 04:00 20,7 C 77 % 1012,2 hPa 0,0 l/m 1,4 km/h N 16,5 C 20,7 C 8,4 km/h
27.07.2018 05:00 20,3 C 78 % 1012,3 hPa 0,0 l/m 1,4 km/h N 16,3 C 20,3 C 6,8 km/h
27.07.2018 06:00 20,5 C 78 % 1012,4 hPa 0,0 l/m 2,7 km/h N 16,5 C 20,5 C 9,2 km/h
27.07.2018 07:00 21,0 C 77 % 1012,7 hPa 0,0 l/m 4,7 km/h N 16,9 C 21,0 C 14,1 km/h
27.07.2018 08:00 21,9 C 76 % 1012,9 hPa 0,0 l/m 5,9 km/h N 17,5 C 21,8 C 19,3 km/h
27.07.2018 09:00 22,5 C 76 % 1013,0 hPa 0,0 l/m 5,2 km/h N 18,0 C 22,5 C 16,5 km/h
27.07.2018 10:00 23,5 C 76 % 1012,9 hPa 0,0 l/m 5,0 km/h N 18,9 C 23,5 C 15,3 km/h
27.07.2018 11:00 25,0 C 71 % 1012,5 hPa 0,0 l/m 4,2 km/h N 19,2 C 25,0 C 15,3 km/h
27.07.2018 12:00 26,3 C 67 % 1012,2 hPa 0,0 l/m 4,2 km/h N 19,6 C 26,3 C 16,5 km/h
27.07.2018 13:00 27,1 C 65 % 1011,4 hPa 0,0 l/m 4,6 km/h N 19,8 C 27,1 C 16,9 km/h
27.07.2018 14:00 27,8 C 61 % 1010,6 hPa 0,0 l/m 3,4 km/h N 19,6 C 27,8 C 15,7 km/h
27.07.2018 15:00 28,2 C 60 % 1009,9 hPa 0,0 l/m 3,1 km/h N 19,6 C 28,2 C 13,7 km/h
27.07.2018 16:00 28,4 C 58 % 1009,6 hPa 0,0 l/m 3,7 km/h N 19,3 C 28,4 C 14,1 km/h
27.07.2018 17:00 28,5 C 55 % 1009,1 hPa 0,0 l/m 3,7 km/h N 18,7 C 28,5 C 13,3 km/h
27.07.2018 18:00 29,1 C 55 % 1008,9 hPa 0,0 l/m 1,5 km/h N 19,0 C 29,1 C 8,4 km/h
27.07.2018 19:00 29,6 C 54 % 1009,3 hPa 0,0 l/m 0,8 km/h N 19,2 C 29,6 C 5,6 km/h
27.07.2018 20:00 28,6 C 58 % 1009,4 hPa 0,0 l/m 0,0 km/h N 19,5 C 28,6 C 0,0 km/h
27.07.2018 21:00 25,7 C 67 % 1009,5 hPa 0,0 l/m 0,0 km/h N 19,0 C 25,7 C 1,2 km/h
27.07.2018 22:00 23,6 C 73 % 1010,0 hPa 0,0 l/m 1,1 km/h N 18,4 C 23,6 C 6,0 km/h
27.07.2018 23:00 23,2 C 74 % 1009,9 hPa 0,0 l/m 2,6 km/h N 18,2 C 23,2 C 8,4 km/h
28.07.2018 00:00 22,4 C 76 % 1009,2 hPa 0,0 l/m 0,0 km/h N 17,8 C 22,4 C 2,0 km/h
28.07.2018 01:00 21,1 C 79 % 1009,4 hPa 0,0 l/m 0,0 km/h N 17,3 C 21,1 C 1,2 km/h
28.07.2018 02:00 20,2 C 81 % 1009,2 hPa 0,0 l/m 0,0 km/h N 16,8 C 20,2 C 0,8 km/h
28.07.2018 03:00 19,6 C 81 % 1009,0 hPa 0,0 l/m 0,0 km/h N 16,2 C 19,6 C 0,0 km/h
28.07.2018 04:00 19,1 C 81 % 1008,7 hPa 0,0 l/m 0,0 km/h N 15,7 C 19,1 C 0,8 km/h
28.07.2018 05:00 18,7 C 81 % 1008,7 hPa 0,0 l/m 0,0 km/h N 15,3 C 18,7 C 0,8 km/h
28.07.2018 06:00 18,7 C 81 % 1008,8 hPa 0,0 l/m 0,0 km/h N 15,4 C 18,7 C 0,4 km/h
28.07.2018 07:00 19,4 C 81 % 1008,8 hPa 0,0 l/m 0,0 km/h N 16,0 C 19,4 C 0,4 km/h
28.07.2018 08:00 20,6 C 81 % 1008,7 hPa 0,0 l/m 0,0 km/h N 17,3 C 20,6 C 2,0 km/h
28.07.2018 09:00 24,2 C 75 % 1008,8 hPa 0,0 l/m 0,2 km/h N 19,5 C 24,2 C 3,2 km/h
28.07.2018 10:00 27,0 C 67 % 1008,8 hPa 0,0 l/m 0,3 km/h N 20,2 C 27,0 C 4,0 km/h
28.07.2018 11:00 28,3 C 65 % 1008,7 hPa 0,0 l/m 0,4 km/h N 21,0 C 28,3 C 6,8 km/h
28.07.2018 12:00 29,1 C 64 % 1008,5 hPa 0,0 l/m 0,8 km/h N 21,5 C 29,1 C 8,1 km/h
28.07.2018 13:00 30,5 C 59 % 1008,2 hPa 0,0 l/m 0,4 km/h N 21,5 C 30,5 C 4,8 km/h
28.07.2018 14:00 31,2 C 52 % 1007,9 hPa 0,0 l/m 0,8 km/h N 20,2 C 31,2 C 8,0 km/h
28.07.2018 15:00 30,5 C 53 % 1007,7 hPa 0,0 l/m 0,8 km/h N 19,9 C 30,5 C 8,4 km/h
28.07.2018 16:00 30,3 C 53 % 1007,8 hPa 0,0 l/m 0,2 km/h N 19,4 C 30,3 C 4,0 km/h
28.07.2018 17:00 29,9 C 58 % 1007,7 hPa 0,0 l/m 0,5 km/h N 20,6 C 29,9 C 5,6 km/h
28.07.2018 18:00 30,2 C 56 % 1007,4 hPa 0,0 l/m 0,0 km/h N 20,3 C 30,2 C 2,0 km/h
28.07.2018 19:00 30,4 C 54 % 1007,8 hPa 0,0 l/m 0,0 km/h N 20,1 C 30,4 C 1,6 km/h
28.07.2018 20:00 29,2 C 58 % 1008,4 hPa 0,0 l/m 0,0 km/h N 20,1 C 29,2 C 0,0 km/h
28.07.2018 21:00 25,9 C 70 % 1009,5 hPa 0,0 l/m 0,0 km/h N 20,0 C 25,9 C 0,0 km/h
28.07.2018 22:00 23,8 C 76 % 1009,8 hPa 0,0 l/m 0,0 km/h N 19,2 C 23,8 C 0,4 km/h
28.07.2018 23:00 22,8 C 78 % 1009,8 hPa 0,0 l/m 0,3 km/h N 18,8 C 22,8 C 3,2 km/h
29.07.2018 00:00 22,9 C 77 % 1009,9 hPa 0,0 l/m 1,6 km/h N 18,6 C 22,9 C 6,4 km/h
29.07.2018 01:00 23,4 C 72 % 1010,0 hPa 0,0 l/m 2,4 km/h N 17,8 C 23,4 C 12,1 km/h
29.07.2018 02:00 25,4 C 61 % 1010,0 hPa 0,0 l/m 6,6 km/h N 17,3 C 25,3 C 20,9 km/h
29.07.2018 03:00 25,2 C 60 % 1010,4 hPa 0,0 l/m 7,7 km/h N 16,8 C 24,9 C 23,3 km/h
29.07.2018 04:00 24,9 C 59 % 1010,6 hPa 0,0 l/m 8,3 km/h N 16,2 C 24,4 C 22,5 km/h
29.07.2018 05:00 24,8 C 59 % 1010,8 hPa 0,0 l/m 7,6 km/h N 16,2 C 24,4 C 21,3 km/h
29.07.2018 06:00 24,6 C 61 % 1011,6 hPa 0,0 l/m 8,7 km/h N 16,5 C 24,1 C 25,3 km/h
29.07.2018 07:00 24,6 C 62 % 1012,3 hPa 0,0 l/m 12,5 km/h N 16,8 C 23,2 C 30,2 km/h
29.07.2018 08:00 25,4 C 62 % 1012,8 hPa 0,0 l/m 11,1 km/h N 17,6 C 24,4 C 25,8 km/h
29.07.2018 09:00 26,0 C 61 % 1013,3 hPa 0,0 l/m 11,1 km/h N 17,8 C 25,1 C 25,3 km/h
29.07.2018 10:00 26,5 C 60 % 1013,5 hPa 0,0 l/m 9,1 km/h N 18,0 C 26,0 C 24,5 km/h
29.07.2018 11:00 27,0 C 59 % 1013,4 hPa 0,0 l/m 11,4 km/h N 18,3 C 26,2 C 27,0 km/h
29.07.2018 12:00 27,9 C 60 % 1013,1 hPa 0,0 l/m 7,4 km/h N 19,3 C 27,7 C 22,5 km/h
29.07.2018 13:00 28,6 C 57 % 1012,7 hPa 0,0 l/m 7,3 km/h N 19,2 C 28,5 C 21,7 km/h
29.07.2018 14:00 29,3 C 53 % 1012,4 hPa 0,0 l/m 5,9 km/h N 18,7 C 29,2 C 20,1 km/h
29.07.2018 15:00 29,4 C 52 % 1011,9 hPa 0,0 l/m 6,6 km/h N 18,6 C 29,4 C 19,7 km/h
29.07.2018 16:00 29,7 C 53 % 1011,6 hPa 0,0 l/m 4,9 km/h N 19,0 C 29,7 C 19,7 km/h
29.07.2018 17:00 29,7 C 53 % 1011,2 hPa 0,0 l/m 4,2 km/h N 19,0 C 29,7 C 18,1 km/h
29.07.2018 18:00 29,7 C 55 % 1011,2 hPa 0,0 l/m 3,2 km/h N 19,5 C 29,7 C 13,3 km/h
29.07.2018 19:00 29,8 C 55 % 1011,2 hPa 0,0 l/m 1,4 km/h N 19,6 C 29,8 C 9,3 km/h
29.07.2018 20:00 28,4 C 57 % 1011,6 hPa 0,0 l/m 1,4 km/h N 19,1 C 28,4 C 6,4 km/h
29.07.2018 21:00 26,0 C 64 % 1012,2 hPa 0,0 l/m 0,0 km/h N 18,7 C 26,0 C 0,4 km/h
29.07.2018 22:00 24,5 C 71 % 1012,5 hPa 0,0 l/m 0,1 km/h N 18,9 C 24,5 C 3,2 km/h
29.07.2018 23:00 23,5 C 74 % 1012,8 hPa 0,0 l/m 0,2 km/h N 18,6 C 23,5 C 1,2 km/h
Min-Datum _ 23.07.18 24.07.18 28.07.18 - 24.07.18 - 25.07.18 23.07.18 24.07.18
_ Min-Zeit 07:30 17:15 18:15 - 20:30 - 05:45 06:30 22:30
Minimum _ 17,1 C 42 % 1007,4 hPa - 0,0 km/h - 13,7 C 15,3 C 0,0 km/h
Max-Datum _ 28.07.18 27.07.18 26.07.18 26.07.18 29.07.18 - 28.07.18 28.07.18 23.07.18
_ Max-Zeit 14:45 01:45 08:45 19:00 07:15 - 12:15 14:45 08:30
Maximum _ 31,6 C 83 % 1013,6 hPa 17,7 l/m 13,7 km/h
N
- 22,1 C 31,6 C 33,8 km/h
N
Durchschnitt _ 23,8 C 67 % 1011,3 hPa #38,5 l/m 3,9 km/h N 17,1 C 23,7 C 12,9 km/h